Time;durP1;ratioP1;P1;durP2;ratioP2;P2;SDS_P1;SDS_P2;PMS_P1;PMS_P2;Temp;Humidity;BMP_temperature;BMP_pressure;BME280_temperature;BME280_humidity;BME280_pressure;Samples;Min_cycle;Max_cycle;Signal;HPM_P1;HPM_P2
2023/10/10 00:01:17;;;;;;;7.25;3.70;;;19.90;73.20;;;;;;4991008;28;20275;-69
2023/10/10 00:03:45;;;;;;;5.78;3.17;;;19.90;73.20;;;;;;5007334;28;20389;-69
2023/10/10 00:06:14;;;;;;;7.13;3.45;;;19.90;73.20;;;;;;4994177;28;20187;-68
2023/10/10 00:08:41;;;;;;;5.57;3.20;;;19.90;73.30;;;;;;5000340;28;20222;-69
2023/10/10 00:11:14;;;;;;;4.40;3.30;;;19.90;73.20;;;;;;4987987;28;20180;-69
2023/10/10 00:13:52;;;;;;;6.85;3.47;;;19.90;73.30;;;;;;4992724;28;20246;-69
2023/10/10 00:16:31;;;;;;;4.55;3.33;;;19.90;73.20;;;;;;5008664;28;20207;-69
2023/10/10 00:18:58;;;;;;;4.25;3.10;;;19.90;73.20;;;;;;5010569;28;20208;-69
2023/10/10 00:21:28;;;;;;;5.63;3.63;;;19.90;73.20;;;;;;4977276;28;20192;-69
2023/10/10 00:23:55;;;;;;;6.10;3.78;;;19.80;73.10;;;;;;4993321;28;20668;-69
2023/10/10 00:26:25;;;;;;;5.82;3.45;;;19.80;73.10;;;;;;5011720;28;20192;-68
2023/10/10 00:28:55;;;;;;;4.80;3.22;;;19.90;73.20;;;;;;5008306;28;20287;-69
2023/10/10 00:31:23;;;;;;;7.25;3.72;;;19.80;73.10;;;;;;4993080;28;20192;-69
2023/10/10 00:33:50;;;;;;;5.60;3.63;;;19.80;73.10;;;;;;5006872;28;20215;-69
2023/10/10 00:36:22;;;;;;;6.40;3.55;;;19.90;73.20;;;;;;4992939;28;20226;-69
2023/10/10 00:41:44;;;;;;;4.63;3.72;;;19.90;73.30;;;;;;5007792;28;20258;-68
2023/10/10 00:44:15;;;;;;;5.80;3.35;;;19.90;73.30;;;;;;5009057;28;20184;-69
2023/10/10 00:46:47;;;;;;;7.75;3.63;;;19.80;73.20;;;;;;4974791;28;20300;-68
2023/10/10 00:49:17;;;;;;;6.15;3.30;;;19.80;73.10;;;;;;5008392;28;20426;-69
2023/10/10 00:51:47;;;;;;;5.57;3.15;;;19.90;73.30;;;;;;5000876;28;20188;-69
2023/10/10 00:56:54;;;;;;;8.27;3.55;;;19.80;73.10;;;;;;5000055;28;20208;-69
2023/10/10 00:59:42;;;;;;;4.40;3.30;;;19.80;73.10;;;;;;4982463;28;20218;-69
2023/10/10 01:02:10;;;;;;;4.68;3.28;;;19.80;73.10;;;;;;5010699;28;20189;-69
2023/10/10 01:04:57;;;;;;;5.13;3.20;;;19.80;73.20;;;;;;5008106;28;20210;-69
2023/10/10 01:07:25;;;;;;;6.05;3.20;;;19.80;73.20;;;;;;4991441;28;20199;-69
2023/10/10 01:10:07;;;;;;;6.80;3.75;;;19.80;73.20;;;;;;4983379;28;20223;-68
2023/10/10 01:12:35;;;;;;;5.20;3.35;;;19.80;73.20;;;;;;4974335;28;20196;-69
2023/10/10 01:15:15;;;;;;;4.65;3.28;;;19.80;73.20;;;;;;5005907;28;20306;-69
2023/10/10 01:17:44;;;;;;;5.05;3.47;;;19.80;73.10;;;;;;4989376;28;20191;-71
2023/10/10 01:23:07;;;;;;;4.07;3.30;;;19.80;73.10;;;;;;4990955;28;20239;-71
2023/10/10 01:28:02;;;;;;;5.90;2.80;;;19.80;73.20;;;;;;5002642;28;20205;-71
2023/10/10 01:30:57;;;;;;;7.38;3.25;;;19.80;73.20;;;;;;4990652;28;20294;-71
2023/10/10 01:33:47;;;;;;;5.72;3.53;;;19.80;73.20;;;;;;4999691;28;20189;-71
2023/10/10 01:36:19;;;;;;;4.65;3.33;;;19.80;73.20;;;;;;4979898;28;20265;-71
2023/10/10 01:38:59;;;;;;;6.00;3.13;;;19.80;73.20;;;;;;5003809;28;20356;-71
2023/10/10 01:41:34;;;;;;;4.97;3.20;;;19.80;73.10;;;;;;4995617;28;20691;-71
2023/10/10 01:44:12;;;;;;;4.38;2.92;;;19.80;73.10;;;;;;4973648;28;20199;-71
2023/10/10 01:46:41;;;;;;;4.18;3.00;;;19.80;73.10;;;;;;4991567;28;20188;-71
2023/10/10 01:49:13;;;;;;;5.25;3.42;;;19.80;73.20;;;;;;4975287;28;20208;-71
2023/10/10 01:51:42;;;;;;;4.20;2.92;;;19.80;73.20;;;;;;4976761;28;20631;-71
2023/10/10 01:54:15;;;;;;;4.65;2.83;;;19.80;73.20;;;;;;5004508;28;20220;-72
2023/10/10 01:56:42;;;;;;;5.20;2.90;;;19.80;73.20;;;;;;4989189;28;20214;-71
2023/10/10 01:59:13;;;;;;;6.30;3.05;;;19.80;73.10;;;;;;4991190;28;20209;-71
2023/10/10 02:01:40;;;;;;;5.97;3.47;;;19.80;73.20;;;;;;4985965;28;20276;-69
2023/10/10 02:04:07;;;;;;;4.80;2.85;;;19.80;73.20;;;;;;4973044;28;20282;-69
2023/10/10 02:06:35;;;;;;;4.13;2.58;;;19.80;73.10;;;;;;5002297;28;20184;-69
2023/10/10 02:11:54;;;;;;;5.82;3.13;;;19.70;73.00;;;;;;5002031;28;20283;-68
2023/10/10 02:14:30;;;;;;;5.13;2.67;;;19.80;73.10;;;;;;4973072;28;20225;-68
2023/10/10 02:17:06;;;;;;;3.95;2.40;;;19.80;73.10;;;;;;4973359;28;20326;-68
2023/10/10 02:19:38;;;;;;;6.03;2.67;;;19.80;73.10;;;;;;4984824;28;20212;-69
2023/10/10 02:22:23;;;;;;;4.15;2.72;;;19.80;73.10;;;;;;5003474;28;20185;-69
2023/10/10 02:24:58;;;;;;;5.25;3.05;;;19.80;73.10;;;;;;4985434;28;20186;-69
2023/10/10 02:27:32;;;;;;;3.33;2.67;;;19.80;73.90;;;;;;4983790;28;20234;-69
2023/10/10 02:30:04;;;;;;;2.97;2.47;;;19.80;73.10;;;;;;4971893;28;20262;-69
2023/10/10 02:32:30;;;;;;;4.13;2.65;;;19.70;72.90;;;;;;4971273;28;20192;-69
2023/10/10 02:37:45;;;;;;;4.95;2.95;;;19.80;73.00;;;;;;4995922;28;20234;-69
2023/10/10 02:40:15;;;;;;;4.40;2.80;;;19.80;73.00;;;;;;4986081;28;20286;-69
2023/10/10 02:45:37;;;;;;;4.57;2.97;;;19.70;73.00;;;;;;4956691;28;20202;-69
2023/10/10 02:48:09;;;;;;;4.82;2.83;;;19.70;73.00;;;;;;4993007;28;20177;-69
2023/10/10 02:50:40;;;;;;;5.10;2.65;;;19.70;72.90;;;;;;4975756;28;20216;-69
2023/10/10 02:53:07;;;;;;;4.20;2.88;;;19.70;73.00;;;;;;4975571;28;20189;-69
2023/10/10 02:55:41;;;;;;;3.97;2.28;;;19.70;72.90;;;;;;4983285;28;20272;-69
2023/10/10 02:58:43;;;;;;;5.47;3.08;;;19.70;72.90;;;;;;4982301;28;20240;-69
2023/10/10 03:01:03;;;;;;;2.42;2.13;;;19.70;72.90;;;;;;4970254;28;20201;-69
2023/10/10 03:03:30;;;;;;;6.38;3.25;;;19.70;72.90;;;;;;4991626;28;20242;-70
2023/10/10 03:05:58;;;;;;;3.83;2.65;;;19.70;72.90;;;;;;4975464;28;20199;-69
2023/10/10 03:08:34;;;;;;;5.50;2.80;;;19.70;72.90;;;;;;4987424;28;20203;-70
2023/10/10 03:11:14;;;;;;;3.65;2.70;;;19.70;72.90;;;;;;4965289;28;20243;-70
2023/10/10 03:13:54;;;;;;;4.10;2.78;;;19.70;72.90;;;;;;4991423;28;20193;-70
2023/10/10 03:27:10;;;;;;;3.25;2.50;;;19.70;72.90;;;;;;4961256;28;20281;-69
2023/10/10 03:29:46;;;;;;;5.93;2.63;;;19.70;72.90;;;;;;4994533;28;20209;-69
2023/10/10 03:32:21;;;;;;;5.50;2.90;;;19.70;72.90;;;;;;4962349;28;20188;-70
2023/10/10 03:35:03;;;;;;;4.75;2.80;;;19.70;72.90;;;;;;4983343;28;20193;-70
2023/10/10 03:37:39;;;;;;;4.38;2.88;;;19.70;72.80;;;;;;4978389;28;20699;-70
2023/10/10 05:25:23;;;;;;;5.35;3.03;;;19.60;72.60;;;;;;4992747;28;20237;-70
2023/10/10 05:27:52;;;;;;;4.90;3.30;;;19.60;72.50;;;;;;4997479;28;20559;-70
2023/10/10 05:30:25;;;;;;;4.47;2.90;;;19.60;72.50;;;;;;4981721;28;20223;-70
2023/10/10 05:33:02;;;;;;;4.38;3.33;;;19.60;72.50;;;;;;4964739;28;20263;-70
2023/10/10 05:35:58;;;;;;;4.75;2.85;;;19.60;72.50;;;;;;4999427;28;20189;-70
2023/10/10 05:38:25;;;;;;;4.20;2.95;;;19.60;72.70;;;;;;4976195;28;20185;-70
2023/10/10 05:40:51;;;;;;;4.43;2.85;;;19.60;72.80;;;;;;4978855;28;20203;-69
2023/10/10 05:43:17;;;;;;;5.25;3.20;;;19.60;72.80;;;;;;4995162;28;20181;-70
2023/10/10 05:45:44;;;;;;;4.00;2.72;;;19.60;72.80;;;;;;4997388;28;20176;-69
2023/10/10 05:48:11;;;;;;;3.10;2.80;;;19.60;72.80;;;;;;4996652;28;20189;-69
2023/10/10 05:50:40;;;;;;;4.15;3.10;;;19.60;72.70;;;;;;4982129;28;20204;-70
2023/10/10 05:53:06;;;;;;;5.72;3.03;;;19.60;72.80;;;;;;4996517;28;20188;-70
2023/10/10 05:55:35;;;;;;;5.57;2.97;;;19.60;72.80;;;;;;4981683;28;20192;-70
2023/10/10 05:58:02;;;;;;;4.05;2.85;;;19.60;72.80;;;;;;5000683;28;20184;-70
2023/10/10 06:00:36;;;;;;;6.28;3.50;;;19.60;72.70;;;;;;4992156;28;20236;-69
2023/10/10 06:03:05;;;;;;;3.67;2.88;;;19.60;72.70;;;;;;4990866;28;20653;-70
2023/10/10 06:05:33;;;;;;;4.97;3.00;;;19.60;72.80;;;;;;4994489;28;20200;-70
2023/10/10 06:07:59;;;;;;;7.47;3.38;;;19.60;72.80;;;;;;4978026;28;20276;-69
2023/10/10 06:10:31;;;;;;;4.50;2.83;;;19.60;72.80;;;;;;4980486;28;20212;-70
2023/10/10 06:13:03;;;;;;;5.03;2.88;;;19.60;72.90;;;;;;4970499;28;20209;-70
2023/10/10 06:15:33;;;;;;;3.85;3.00;;;19.60;72.90;;;;;;5001819;28;20272;-69
2023/10/10 06:18:13;;;;;;;4.90;3.38;;;19.60;72.90;;;;;;4995503;28;20184;-70
2023/10/10 06:20:44;;;;;;;5.57;2.75;;;19.60;72.90;;;;;;4995376;28;20207;-70
2023/10/10 06:23:20;;;;;;;4.95;3.25;;;19.60;72.90;;;;;;4997368;28;20192;-70
2023/10/10 06:25:47;;;;;;;5.88;3.25;;;19.60;72.90;;;;;;4989917;28;20270;-70
2023/10/10 06:28:29;;;;;;;4.53;2.97;;;19.60;72.90;;;;;;4971861;28;20239;-69
2023/10/10 06:30:55;;;;;;;6.85;3.35;;;19.60;72.80;;;;;;4996251;28;20271;-70
2023/10/10 06:33:28;;;;;;;6.68;3.50;;;19.60;72.90;;;;;;4978525;28;20247;-70
2023/10/10 06:36:18;;;;;;;6.85;3.33;;;19.60;73.70;;;;;;4977288;28;20459;-70
2023/10/10 06:38:44;;;;;;;4.53;2.50;;;19.60;72.90;;;;;;4996582;28;20184;-70
2023/10/10 06:41:17;;;;;;;6.43;2.90;;;19.60;72.90;;;;;;4984827;28;20193;-69
2023/10/10 06:43:46;;;;;;;5.35;3.28;;;19.60;72.90;;;;;;4994302;28;20180;-69
2023/10/10 06:46:17;;;;;;;6.75;2.67;;;19.60;73.00;;;;;;4990895;28;20189;-70
2023/10/10 06:48:47;;;;;;;4.57;3.05;;;19.60;73.00;;;;;;4993269;28;20187;-69
2023/10/10 06:51:21;;;;;;;4.15;2.90;;;19.60;73.00;;;;;;4994121;28;20195;-69
2023/10/10 06:53:54;;;;;;;4.55;2.83;;;19.60;72.90;;;;;;4977855;28;20183;-69
2023/10/10 06:56:43;;;;;;;3.70;2.92;;;19.60;73.00;;;;;;4992683;28;20201;-69
2023/10/10 06:59:05;;;;;;;5.35;3.35;;;19.60;72.90;;;;;;4988779;28;20236;-70
2023/10/10 07:01:31;;;;;;;6.40;3.20;;;19.60;72.80;;;;;;4992483;28;20212;-70
2023/10/10 07:04:03;;;;;;;4.03;3.10;;;19.60;72.90;;;;;;4977272;28;20188;-70
2023/10/10 07:06:29;;;;;;;4.85;3.10;;;19.60;72.90;;;;;;4977076;28;20188;-70
2023/10/10 07:11:39;;;;;;;4.38;3.03;;;19.60;72.90;;;;;;4993856;28;20196;-69
2023/10/10 07:14:09;;;;;;;5.65;3.33;;;19.70;73.00;;;;;;4976371;28;20196;-70
2023/10/10 07:16:35;;;;;;;4.80;2.90;;;19.60;73.00;;;;;;4991635;28;20219;-70
2023/10/10 07:19:18;;;;;;;4.93;3.35;;;19.60;73.00;;;;;;4989458;28;20205;-70
2023/10/10 07:21:46;;;;;;;5.53;3.20;;;19.60;73.00;;;;;;4975733;28;20192;-69
2023/10/10 07:24:15;;;;;;;5.88;3.00;;;19.60;73.00;;;;;;4993750;28;20223;-70
2023/10/10 07:26:43;;;;;;;4.82;3.20;;;19.60;73.00;;;;;;4984472;28;20262;-70
2023/10/10 07:29:57;;;;;;;3.97;2.70;;;19.70;73.10;;;;;;4975941;28;20224;-69
2023/10/10 07:32:28;;;;;;;4.60;3.20;;;19.60;73.00;;;;;;4988982;28;20192;-70
2023/10/10 07:34:54;;;;;;;5.03;2.90;;;19.60;73.10;;;;;;4972693;28;20192;-70
2023/10/10 07:37:22;;;;;;;6.05;3.30;;;19.70;73.20;;;;;;4988725;28;20212;-70
2023/10/10 07:39:55;;;;;;;5.50;3.03;;;19.70;73.20;;;;;;4999760;28;20234;-70
2023/10/10 07:42:29;;;;;;;4.05;2.97;;;19.70;73.10;;;;;;4972891;28;20214;-70
2023/10/10 07:44:56;;;;;;;3.88;2.70;;;19.70;73.10;;;;;;4985573;28;20181;-70
2023/10/10 07:47:27;;;;;;;4.22;3.17;;;19.70;73.10;;;;;;4991949;28;20251;-70
2023/10/10 07:49:59;;;;;;;4.18;2.95;;;19.70;73.00;;;;;;4982959;28;20235;-70
2023/10/10 07:52:25;;;;;;;4.55;3.08;;;19.80;73.20;;;;;;4983179;28;20280;-70
2023/10/10 07:54:53;;;;;;;5.50;2.95;;;19.80;73.20;;;;;;4999518;28;20185;-70
2023/10/10 07:57:22;;;;;;;7.28;3.40;;;19.80;73.20;;;;;;4971386;28;20220;-70
2023/10/10 07:59:49;;;;;;;3.92;2.72;;;19.80;73.20;;;;;;4990727;28;20205;-70
2023/10/10 08:02:25;;;;;;;3.92;2.97;;;19.80;73.40;;;;;;4991568;28;20269;-70
2023/10/10 08:04:56;;;;;;;4.90;3.15;;;19.80;73.30;;;;;;5000373;28;20184;-70
2023/10/10 08:07:23;;;;;;;5.53;3.10;;;19.80;73.30;;;;;;4990358;28;20201;-70
2023/10/10 08:10:11;;;;;;;6.63;2.90;;;19.80;73.40;;;;;;4979001;28;20205;-70
2023/10/10 08:12:40;;;;;;;4.10;2.67;;;19.80;73.40;;;;;;4992398;28;20299;-70
2023/10/10 08:15:19;;;;;;;4.07;3.25;;;19.80;73.50;;;;;;4991690;28;20189;-70
2023/10/10 08:17:55;;;;;;;6.03;3.45;;;19.80;73.70;;;;;;4979193;28;20223;-70
2023/10/10 08:23:08;;;;;;;8.23;3.30;;;19.80;73.70;;;;;;4997624;28;20645;-70
2023/10/10 08:25:37;;;;;;;5.07;3.53;;;19.80;73.70;;;;;;4986964;28;20660;-70
2023/10/10 08:28:04;;;;;;;8.48;3.40;;;19.80;73.70;;;;;;5013593;28;20283;-70
2023/10/10 08:30:30;;;;;;;5.35;3.05;;;19.80;73.90;;;;;;5010647;28;20193;-70
2023/10/10 08:32:58;;;;;;;5.40;3.10;;;19.80;73.90;;;;;;5007028;28;20187;-70
2023/10/10 08:35:27;;;;;;;8.40;3.15;;;19.80;74.00;;;;;;4997443;28;20251;-70
2023/10/10 08:37:53;;;;;;;4.65;3.22;;;19.80;74.00;;;;;;4980890;28;20223;-70
2023/10/10 08:40:22;;;;;;;3.95;2.70;;;19.80;74.00;;;;;;4996871;28;20215;-70
2023/10/10 08:42:50;;;;;;;6.03;2.70;;;19.90;74.10;;;;;;4977977;28;20192;-70
2023/10/10 08:45:28;;;;;;;5.40;3.10;;;19.80;74.00;;;;;;5008130;28;20180;-70
2023/10/10 08:48:01;;;;;;;4.22;2.65;;;19.90;74.10;;;;;;4980641;28;20188;-70
2023/10/10 08:50:32;;;;;;;4.93;2.55;;;19.90;74.10;;;;;;4997022;28;20208;-69
2023/10/10 08:53:02;;;;;;;6.03;3.03;;;19.90;74.10;;;;;;5006487;28;20184;-70
2023/10/10 08:55:29;;;;;;;4.60;2.92;;;19.90;74.10;;;;;;4996548;28;20199;-70
2023/10/10 08:57:55;;;;;;;5.45;2.55;;;19.90;74.10;;;;;;4987636;28;20210;-70
2023/10/10 09:00:26;;;;;;;4.00;2.85;;;19.90;74.10;;;;;;4996164;28;20212;-70
2023/10/10 09:02:54;;;;;;;6.03;3.33;;;19.90;74.30;;;;;;5011566;28;20189;-69
2023/10/10 09:05:23;;;;;;;6.53;2.80;;;19.90;74.20;;;;;;5012337;28;20191;-69
2023/10/10 09:07:55;;;;;;;4.97;2.80;;;19.90;74.20;;;;;;5011449;28;20189;-70
2023/10/10 09:10:28;;;;;;;5.50;3.15;;;19.90;74.30;;;;;;5008734;28;20212;-70
2023/10/10 09:15:21;;;;;;;4.78;2.90;;;19.90;74.30;;;;;;5005328;28;20603;-70
2023/10/10 09:17:48;;;;;;;4.50;2.88;;;19.90;74.30;;;;;;5001209;28;20219;-70
2023/10/10 09:20:28;;;;;;;4.15;2.58;;;19.90;74.40;;;;;;4994360;28;20205;-70
2023/10/10 09:23:08;;;;;;;5.20;2.83;;;19.90;74.50;;;;;;5010195;28;20676;-70
2023/10/10 09:25:44;;;;;;;5.53;2.50;;;19.90;74.40;;;;;;4987880;28;20656;-70
2023/10/10 09:28:15;;;;;;;5.82;2.45;;;19.90;74.50;;;;;;4978194;28;20272;-70
2023/10/10 09:30:49;;;;;;;5.60;2.75;;;19.90;75.60;;;;;;4976153;28;20209;-70
2023/10/10 09:33:23;;;;;;;5.05;3.05;;;19.90;74.50;;;;;;5010896;28;20846;-69
2023/10/10 09:36:09;;;;;;;3.25;2.42;;;19.90;74.50;;;;;;4986427;28;20212;-70
2023/10/10 09:38:43;;;;;;;5.40;3.22;;;19.90;74.50;;;;;;4993258;28;20668;-70
2023/10/10 09:41:37;;;;;;;4.82;2.80;;;19.90;74.80;;;;;;4990804;28;20212;-69
2023/10/10 10:09:17;;;;;;;7.90;4.72;;;20.00;75.50;;;;;;5006320;28;20224;-70
2023/10/10 10:12:30;;;;;;;9.20;5.10;;;20.00;75.40;;;;;;4990056;28;20200;-70
2023/10/10 10:15:38;;;;;;;17.58;11.85;;;20.00;75.10;;;;;;4984114;28;20683;-69
2023/10/10 10:18:19;;;;;;;12.13;7.78;;;20.00;75.50;;;;;;5004711;28;20184;-70
2023/10/10 10:23:44;;;;;;;15.07;10.43;;;19.90;75.60;;;;;;5009909;28;20183;-70
2023/10/10 10:26:12;;;;;;;18.58;9.77;;;20.00;75.30;;;;;;5006158;28;20180;-69
2023/10/10 10:28:42;;;;;;;20.33;11.57;;;20.00;75.30;;;;;;5003764;28;20267;-69
2023/10/10 10:31:16;;;;;;;21.90;13.60;;;20.00;75.40;;;;;;4991710;28;20652;-70
2023/10/10 10:34:05;;;;;;;23.33;14.07;;;20.00;75.60;;;;;;5006414;28;20283;-69
2023/10/10 10:36:44;;;;;;;25.38;15.60;;;20.00;75.60;;;;;;5001418;28;20597;-70
2023/10/10 10:39:26;;;;;;;25.20;15.40;;;20.00;75.50;;;;;;5004859;28;20263;-70
2023/10/10 10:42:00;;;;;;;29.33;18.35;;;20.00;75.60;;;;;;4989976;28;20231;-69
2023/10/10 10:44:44;;;;;;;32.50;21.58;;;20.00;75.40;;;;;;5000101;28;20283;-69
2023/10/10 10:47:35;;;;;;;30.58;19.50;;;20.00;75.40;;;;;;4963231;28;20219;-69
2023/10/10 10:50:27;;;;;;;30.30;19.52;;;20.00;75.70;;;;;;4982987;28;20243;-69
2023/10/10 10:53:08;;;;;;;29.33;18.38;;;20.00;75.90;;;;;;4975567;28;20213;-68
2023/10/10 10:55:41;;;;;;;33.35;21.73;;;20.00;75.90;;;;;;4990573;28;20195;-70
2023/10/10 11:01:00;;;;;;;38.63;23.33;;;20.00;75.60;;;;;;4983617;28;20214;-69
2023/10/10 11:03:34;;;;;;;36.25;22.48;;;20.00;75.70;;;;;;4999193;28;20277;-69
2023/10/10 11:06:06;;;;;;;40.10;23.92;;;20.00;75.60;;;;;;4975622;28;20224;-69
2023/10/10 11:11:36;;;;;;;36.60;22.45;;;20.00;76.00;;;;;;4997573;28;20180;-69
2023/10/10 11:16:56;;;;;;;40.95;27.67;;;20.00;75.70;;;;;;4976673;28;20197;-69
2023/10/10 11:21:56;;;;;;;46.13;28.40;;;20.00;75.50;;;;;;4984219;28;20553;-69
2023/10/10 11:24:25;;;;;;;45.55;28.92;;;20.00;75.60;;;;;;4982079;28;20195;-70
2023/10/10 11:29:45;;;;;;;39.22;26.40;;;20.10;75.60;;;;;;4999460;28;20216;-69
2023/10/10 11:32:25;;;;;;;43.40;27.85;;;20.10;76.00;;;;;;5004182;28;20302;-70
2023/10/10 11:34:56;;;;;;;41.17;25.42;;;20.10;75.60;;;;;;5001606;28;20263;-70
2023/10/10 11:37:31;;;;;;;36.03;24.13;;;20.10;75.40;;;;;;4996801;28;20311;-69
2023/10/10 11:43:03;;;;;;;44.20;25.30;;;20.10;75.90;;;;;;4975304;28;20272;-69
2023/10/10 11:45:31;;;;;;;37.22;24.23;;;20.10;75.50;;;;;;5002356;28;20177;-69
2023/10/10 11:48:05;;;;;;;40.47;27.40;;;20.10;75.30;;;;;;5003886;28;20276;-69
2023/10/10 11:50:51;;;;;;;36.90;24.38;;;20.10;75.40;;;;;;4988882;28;20208;-69
2023/10/10 11:53:27;;;;;;;41.28;25.63;;;20.10;75.40;;;;;;4968279;28;20318;-69
2023/10/10 11:55:54;;;;;;;35.47;24.92;;;20.10;75.40;;;;;;5002392;28;20192;-69
2023/10/10 11:58:35;;;;;;;37.03;26.63;;;20.10;75.00;;;;;;4965271;28;20267;-69
2023/10/10 12:01:18;;;;;;;39.83;26.85;;;20.10;75.00;;;;;;4983226;28;20713;-70
2023/10/10 12:03:43;;;;;;;39.42;26.83;;;20.10;75.00;;;;;;4998630;28;20242;-70
2023/10/10 12:06:16;;;;;;;38.58;25.40;;;20.10;74.90;;;;;;4982244;28;20189;-70
2023/10/10 12:08:47;;;;;;;39.13;26.52;;;20.10;74.50;;;;;;4981037;28;20275;-70
2023/10/10 12:11:15;;;;;;;34.30;24.27;;;20.10;75.20;;;;;;5006901;28;20274;-70
2023/10/10 12:13:44;;;;;;;39.03;25.73;;;20.10;74.40;;;;;;5001081;28;20287;-70
2023/10/10 12:16:10;;;;;;;34.10;21.80;;;20.10;74.50;;;;;;4991307;28;20213;-69
2023/10/10 12:18:44;;;;;;;34.53;23.45;;;20.10;74.70;;;;;;4965060;28;20184;-70
2023/10/10 12:21:19;;;;;;;38.15;24.98;;;20.10;74.70;;;;;;4992750;28;20191;-70
2023/10/10 12:23:47;;;;;;;36.25;25.63;;;20.10;74.30;;;;;;4983646;28;20187;-70
2023/10/10 12:26:13;;;;;;;39.92;25.73;;;20.10;74.70;;;;;;4990143;28;20189;-70
2023/10/10 12:28:39;;;;;;;32.80;23.05;;;20.20;74.60;;;;;;4983724;28;20621;-70
2023/10/10 12:31:15;;;;;;;34.33;23.23;;;20.10;74.50;;;;;;4987489;28;20190;-70
2023/10/10 12:33:48;;;;;;;33.53;23.83;;;20.10;74.70;;;;;;4999041;28;20223;-69
2023/10/10 12:36:18;;;;;;;35.22;24.80;;;20.10;74.90;;;;;;4986816;28;20270;-70
2023/10/10 12:38:44;;;;;;;38.50;24.75;;;20.20;74.30;;;;;;4985021;28;20177;-70
2023/10/10 12:41:14;;;;;;;32.47;22.88;;;20.20;74.50;;;;;;5002483;28;20231;-70
2023/10/10 12:43:40;;;;;;;31.55;22.38;;;20.10;74.00;;;;;;5001880;28;20188;-70
2023/10/10 12:46:07;;;;;;;30.63;20.80;;;20.20;74.60;;;;;;5001476;28;20193;-69
2023/10/10 12:48:39;;;;;;;32.45;20.98;;;20.20;74.30;;;;;;5003244;28;20192;-70
2023/10/10 12:51:09;;;;;;;29.73;20.70;;;20.10;74.20;;;;;;4996754;28;20189;-70
2023/10/10 12:53:39;;;;;;;34.17;23.05;;;20.10;74.10;;;;;;4986157;28;20188;-70
2023/10/10 12:56:11;;;;;;;29.40;20.67;;;20.20;74.30;;;;;;4986614;28;20213;-70
2023/10/10 12:58:42;;;;;;;30.48;21.30;;;20.20;74.40;;;;;;5005099;28;20184;-70
2023/10/10 13:01:14;;;;;;;26.30;19.95;;;20.20;74.40;;;;;;4970387;28;20200;-70
2023/10/10 13:03:42;;;;;;;29.15;20.77;;;20.20;74.40;;;;;;4983943;28;20181;-70
2023/10/10 13:06:09;;;;;;;30.38;21.88;;;20.10;74.00;;;;;;4983660;28;20318;-70
2023/10/10 13:08:48;;;;;;;29.92;21.23;;;20.20;74.30;;;;;;4985518;28;20200;-70
2023/10/10 13:11:16;;;;;;;32.75;20.77;;;20.20;74.40;;;;;;4984176;28;20189;-70
2023/10/10 13:13:45;;;;;;;31.42;21.83;;;20.20;74.20;;;;;;4989849;28;20238;-69
2023/10/10 13:16:22;;;;;;;28.48;20.40;;;20.20;73.70;;;;;;4999350;28;20208;-70
2023/10/10 13:18:53;;;;;;;27.98;20.20;;;20.20;74.30;;;;;;5001945;28;20278;-71
2023/10/10 13:21:19;;;;;;;34.30;20.05;;;20.20;73.80;;;;;;4986332;28;20192;-69
2023/10/10 13:23:50;;;;;;;27.60;19.08;;;20.20;73.90;;;;;;4997890;28;20192;-70
2023/10/10 13:26:17;;;;;;;27.10;19.83;;;20.20;74.00;;;;;;5000390;28;20282;-70
2023/10/10 13:28:44;;;;;;;27.95;18.42;;;20.20;74.00;;;;;;4988727;28;20584;-70
2023/10/10 13:31:16;;;;;;;25.65;17.92;;;20.20;73.90;;;;;;4968702;28;20196;-69
2023/10/10 13:33:43;;;;;;;29.27;18.48;;;20.20;73.80;;;;;;4970598;28;20208;-70
2023/10/10 13:36:17;;;;;;;29.42;18.70;;;20.20;74.00;;;;;;5000055;28;20220;-70
2023/10/10 13:38:49;;;;;;;25.92;18.15;;;20.20;73.70;;;;;;5000998;28;20180;-70
2023/10/10 13:41:16;;;;;;;26.27;17.63;;;20.20;74.20;;;;;;5004575;28;20287;-70
2023/10/10 13:43:49;;;;;;;28.45;19.17;;;20.20;73.90;;;;;;4986597;28;20246;-70
2023/10/10 13:46:18;;;;;;;29.58;19.95;;;20.20;73.50;;;;;;5007073;28;20185;-70
2023/10/10 13:48:44;;;;;;;24.77;18.83;;;20.20;73.70;;;;;;4965643;28;20184;-70
2023/10/10 13:51:13;;;;;;;27.08;19.33;;;20.20;73.20;;;;;;5004854;28;20662;-69
2023/10/10 13:53:41;;;;;;;24.45;17.58;;;20.20;73.50;;;;;;4969880;28;20187;-69
2023/10/10 13:56:07;;;;;;;23.63;17.20;;;20.20;73.50;;;;;;4985202;28;20291;-70
2023/10/10 13:58:36;;;;;;;24.80;17.70;;;20.20;73.20;;;;;;5011751;28;20184;-70
2023/10/10 14:03:48;;;;;;;23.17;17.23;;;20.20;73.60;;;;;;5000301;28;20196;-70
2023/10/10 14:06:34;;;;;;;23.00;16.05;;;20.20;73.60;;;;;;5001998;28;20264;-70
2023/10/10 14:09:00;;;;;;;26.10;17.48;;;20.20;73.50;;;;;;5001761;28;20212;-70
2023/10/10 14:11:26;;;;;;;22.05;16.83;;;20.20;73.90;;;;;;5007941;28;20184;-70
2023/10/10 14:13:54;;;;;;;24.13;16.73;;;20.20;73.70;;;;;;5003095;28;20199;-70
2023/10/10 14:16:22;;;;;;;22.20;16.75;;;20.20;74.30;;;;;;4997186;28;20625;-70
2023/10/10 14:18:52;;;;;;;22.20;17.15;;;20.20;73.80;;;;;;4978969;28;20180;-70
2023/10/10 14:21:25;;;;;;;24.38;15.98;;;20.20;73.20;;;;;;4989946;28;20180;-70
2023/10/10 14:24:05;;;;;;;21.98;15.95;;;20.30;74.00;;;;;;4962408;28;20647;-70
2023/10/10 14:26:33;;;;;;;24.67;16.58;;;20.20;73.10;;;;;;4988819;28;20571;-70
2023/10/10 14:29:06;;;;;;;23.80;15.75;;;20.20;73.20;;;;;;4979030;28;20794;-70
2023/10/10 14:31:42;;;;;;;20.65;14.77;;;20.20;73.10;;;;;;4967846;28;20270;-70
2023/10/10 14:34:12;;;;;;;19.90;14.55;;;20.30;73.20;;;;;;4968210;28;20195;-70
2023/10/10 14:36:39;;;;;;;21.67;14.50;;;20.30;73.20;;;;;;4966327;28;20680;-70
2023/10/10 14:39:08;;;;;;;21.63;15.65;;;20.20;73.60;;;;;;4994927;28;20296;-70
2023/10/10 14:41:35;;;;;;;21.70;15.68;;;20.30;74.90;;;;;;4991027;28;20200;-70
2023/10/10 14:44:01;;;;;;;20.45;15.07;;;20.20;74.50;;;;;;4995253;28;20185;-70
2023/10/10 14:46:31;;;;;;;21.70;15.40;;;20.20;73.90;;;;;;4998712;28;20203;-71
2023/10/10 14:49:01;;;;;;;20.92;15.15;;;20.20;74.80;;;;;;4977243;28;20217;-70
2023/10/10 14:51:33;;;;;;;19.05;15.25;;;20.20;73.60;;;;;;4986530;28;20213;-70
2023/10/10 14:54:12;;;;;;;22.00;15.88;;;20.20;73.50;;;;;;4990629;28;20196;-70
2023/10/10 14:56:49;;;;;;;21.00;14.10;;;20.20;73.10;;;;;;4988435;28;20204;-70
2023/10/10 14:59:24;;;;;;;18.20;13.30;;;20.30;73.30;;;;;;4997676;28;20212;-70
2023/10/10 15:01:52;;;;;;;18.75;13.02;;;20.20;73.10;;;;;;4981505;28;20181;-71
2023/10/10 15:04:20;;;;;;;18.20;12.32;;;20.30;73.30;;;;;;4991688;28;20654;-70
2023/10/10 15:06:54;;;;;;;17.17;13.13;;;20.30;73.20;;;;;;4982362;28;20199;-70
2023/10/10 15:09:23;;;;;;;19.88;13.65;;;20.30;73.20;;;;;;4994206;28;20295;-70
2023/10/10 15:11:52;;;;;;;17.00;12.88;;;20.30;73.20;;;;;;4965388;28;20562;-70
2023/10/10 15:14:19;;;;;;;18.77;13.00;;;20.20;73.20;;;;;;4964527;28;20189;-70
2023/10/10 15:16:49;;;;;;;19.88;13.73;;;20.20;73.10;;;;;;4991206;28;20586;-71
2023/10/10 15:19:15;;;;;;;18.13;13.50;;;20.30;73.20;;;;;;4991141;28;20212;-70
2023/10/10 15:21:41;;;;;;;23.95;13.88;;;20.20;73.10;;;;;;4998454;28;20183;-70
2023/10/10 15:24:15;;;;;;;17.40;12.75;;;20.20;73.10;;;;;;4994132;28;20203;-70
2023/10/10 15:26:45;;;;;;;16.02;12.85;;;20.20;73.10;;;;;;4991906;28;20195;-70
2023/10/10 15:29:14;;;;;;;19.67;13.68;;;20.20;73.10;;;;;;4993713;28;20212;-70
2023/10/10 15:31:40;;;;;;;17.45;12.73;;;20.20;73.10;;;;;;5002132;28;20189;-70
2023/10/10 15:34:07;;;;;;;20.08;12.82;;;20.20;73.10;;;;;;4991506;28;20560;-70
2023/10/10 15:36:33;;;;;;;16.73;12.02;;;20.20;73.10;;;;;;4991066;28;20217;-70
2023/10/10 15:39:09;;;;;;;19.98;12.18;;;20.20;73.10;;;;;;4993339;28;20231;-70
2023/10/10 15:41:36;;;;;;;15.23;10.75;;;20.20;73.10;;;;;;4995833;28;20195;-70
2023/10/10 15:44:03;;;;;;;15.18;11.25;;;20.20;73.10;;;;;;4993679;28;20183;-70
2023/10/10 15:46:32;;;;;;;13.13;10.65;;;20.20;73.10;;;;;;4994364;28;20586;-70
2023/10/10 15:48:59;;;;;;;17.88;11.68;;;20.20;73.10;;;;;;4978842;28;20219;-70
2023/10/10 15:51:25;;;;;;;16.58;11.30;;;20.20;73.10;;;;;;4994865;28;20247;-70
2023/10/10 15:53:54;;;;;;;14.55;11.05;;;20.30;73.20;;;;;;4994574;28;20199;-70
2023/10/10 15:56:27;;;;;;;19.23;11.80;;;20.20;73.10;;;;;;4979663;28;20303;-70
2023/10/10 15:58:54;;;;;;;14.93;10.27;;;20.20;73.10;;;;;;4957790;28;20214;-70
2023/10/10 16:01:30;;;;;;;13.90;10.70;;;20.20;73.10;;;;;;4993688;28;20193;-70
2023/10/10 16:04:14;;;;;;;16.23;11.82;;;20.20;73.10;;;;;;4975778;28;20219;-70
2023/10/10 16:06:42;;;;;;;16.98;10.95;;;20.20;73.10;;;;;;4977093;28;20244;-71
2023/10/10 16:09:10;;;;;;;14.80;11.13;;;20.20;73.10;;;;;;4978376;28;20219;-70
2023/10/10 16:11:42;;;;;;;12.13;9.75;;;20.20;73.10;;;;;;4994684;28;20199;-70
2023/10/10 16:14:11;;;;;;;14.85;10.00;;;20.20;73.20;;;;;;4990760;28;20189;-69